createdAt,value
2022-10-26T00:09:28.751Z,100.77
2022-10-26T00:24:34.172Z,100.85
2022-10-26T00:39:39.691Z,100.16
2022-10-26T00:54:46.224Z,99.70
2022-10-26T01:09:52.605Z,101.84
2022-10-26T01:25:17.563Z,101.95
2022-10-26T01:40:28.949Z,103.66
2022-10-26T01:55:53.318Z,104.91
2022-10-26T02:11:08.693Z,105.02
2022-10-26T02:26:17.093Z,105.05
2022-10-26T02:41:24.721Z,105.54
2022-10-26T02:56:35.787Z,105.73
2022-10-26T03:11:41.390Z,105.77
2022-10-26T03:26:46.998Z,105.59
2022-10-26T03:56:58.063Z,105.93
2022-10-26T04:12:03.695Z,106.06
2022-10-26T04:27:09.408Z,106.05
2022-10-26T04:42:14.978Z,106.08
2022-10-26T04:57:20.562Z,106.82
2022-10-26T05:12:26.553Z,105.59
2022-10-26T05:27:32.144Z,105.08
2022-10-26T05:42:37.763Z,105.24
2022-10-26T05:57:44.679Z,105.57
2022-10-26T06:12:51.664Z,105.65
2022-10-26T06:28:07.010Z,106.30
2022-10-26T06:43:21.754Z,106.46
2022-10-26T06:58:31.277Z,106.18
2022-10-26T07:13:36.802Z,103.91
2022-10-26T07:28:42.439Z,103.76
2022-10-26T07:43:49.373Z,104.13
2022-10-26T07:58:57.514Z,104.17
2022-10-26T08:14:03.235Z,104.12
2022-10-26T08:29:09.072Z,99.53
2022-10-26T08:44:23.821Z,95.54
2022-10-26T08:59:35.574Z,92.67
2022-10-26T09:14:49.390Z,89.44
2022-10-26T09:29:57.647Z,87.30
2022-10-26T09:45:08.954Z,85.16
2022-10-26T10:00:18.783Z,88.37
2022-10-26T10:15:26.891Z,83.65
2022-10-26T10:30:34.894Z,81.58
2022-10-26T10:45:41.946Z,79.04
2022-10-26T11:00:50.828Z,77.27
2022-10-26T11:16:02.142Z,78.92
2022-10-26T11:31:17.101Z,77.13
2022-10-26T11:46:25.904Z,78.79
2022-10-26T12:01:33.407Z,78.99
2022-10-26T12:16:49.945Z,78.30
2022-10-26T12:31:55.832Z,79.16
2022-10-26T12:47:01.742Z,77.92
2022-10-26T13:02:50.361Z,78.28
2022-10-26T13:18:00.194Z,78.15
2022-10-26T13:33:13.608Z,76.08
2022-10-26T13:48:24.871Z,77.82
2022-10-26T14:03:30.509Z,77.30
2022-10-26T14:18:36.834Z,78.28
2022-10-26T14:33:42.766Z,78.48
2022-10-26T14:48:56.498Z,78.50
2022-10-26T15:04:04.193Z,77.65
2022-10-26T15:19:13.174Z,79.06
2022-10-26T15:34:24.528Z,79.91
2022-10-26T15:49:30.325Z,82.01
2022-10-26T16:04:36.121Z,85.74
2022-10-26T16:19:41.811Z,88.31
2022-10-26T16:34:47.424Z,93.32
2022-10-26T16:49:53.646Z,94.13
2022-10-26T17:05:02.679Z,96.30
2022-10-26T17:20:13.771Z,97.39
2022-10-26T17:35:20.347Z,98.34
2022-10-26T17:50:26.624Z,99.72
2022-10-26T18:05:32.634Z,99.80
2022-10-26T18:20:39.424Z,101.58
2022-10-26T18:35:46.593Z,102.39
2022-10-26T18:50:52.423Z,102.75
2022-10-26T19:05:58.229Z,102.86
2022-10-26T19:21:05.794Z,104.53
2022-10-26T19:36:14.996Z,104.31
2022-10-26T19:51:22.322Z,104.59
2022-10-26T20:06:27.999Z,105.29
2022-10-26T20:21:33.587Z,104.92
2022-10-26T20:36:39.369Z,105.89
2022-10-26T20:52:15.314Z,105.67
2022-10-26T21:07:15.755Z,105.93
2022-10-26T21:22:21.493Z,105.03
2022-10-26T21:37:28.623Z,106.51
2022-10-26T21:52:34.379Z,106.44
2022-10-26T22:07:40.146Z,106.16
2022-10-26T22:22:45.848Z,105.10
2022-10-26T22:37:51.586Z,106.71
2022-10-26T22:52:57.158Z,107.50
2022-10-26T23:08:02.765Z,106.77
2022-10-26T23:23:08.354Z,107.26
2022-10-26T23:38:14.011Z,106.95
2022-10-26T23:53:21.226Z,107.37
